sensor_id;sensor_type;location;lat;lon;timestamp;P1;durP1;ratioP1;P2;durP2;ratioP2
28519;SDS011;15732;48.534;20.382;2023-01-09T00:01:23;20.20;;;9.47;;
28519;SDS011;15732;48.534;20.382;2023-01-09T00:03:56;17.63;;;9.00;;
28519;SDS011;15732;48.534;20.382;2023-01-09T00:06:23;19.42;;;7.93;;
28519;SDS011;15732;48.534;20.382;2023-01-09T00:08:50;23.00;;;8.95;;
28519;SDS011;15732;48.534;20.382;2023-01-09T00:11:17;24.65;;;9.18;;
28519;SDS011;15732;48.534;20.382;2023-01-09T00:13:45;26.63;;;9.07;;
28519;SDS011;15732;48.534;20.382;2023-01-09T00:16:12;22.33;;;8.65;;
28519;SDS011;15732;48.534;20.382;2023-01-09T00:18:44;27.02;;;9.90;;
28519;SDS011;15732;48.534;20.382;2023-01-09T00:21:12;16.75;;;7.65;;
28519;SDS011;15732;48.534;20.382;2023-01-09T00:23:39;22.60;;;9.88;;
28519;SDS011;15732;48.534;20.382;2023-01-09T00:26:09;16.50;;;7.53;;
28519;SDS011;15732;48.534;20.382;2023-01-09T00:28:39;19.55;;;9.07;;
28519;SDS011;15732;48.534;20.382;2023-01-09T00:31:08;23.00;;;9.07;;
28519;SDS011;15732;48.534;20.382;2023-01-09T00:33:40;16.20;;;8.45;;
28519;SDS011;15732;48.534;20.382;2023-01-09T00:36:13;23.58;;;9.02;;
28519;SDS011;15732;48.534;20.382;2023-01-09T00:38:40;23.30;;;8.13;;
28519;SDS011;15732;48.534;20.382;2023-01-09T00:41:09;16.77;;;9.10;;
28519;SDS011;15732;48.534;20.382;2023-01-09T00:43:40;17.80;;;7.63;;
28519;SDS011;15732;48.534;20.382;2023-01-09T00:46:20;20.25;;;7.80;;
28519;SDS011;15732;48.534;20.382;2023-01-09T00:48:56;30.98;;;8.70;;
28519;SDS011;15732;48.534;20.382;2023-01-09T00:51:25;23.70;;;8.18;;
28519;SDS011;15732;48.534;20.382;2023-01-09T00:53:52;17.00;;;7.25;;
28519;SDS011;15732;48.534;20.382;2023-01-09T00:56:23;20.58;;;7.45;;
28519;SDS011;15732;48.534;20.382;2023-01-09T00:58:51;13.98;;;6.88;;
28519;SDS011;15732;48.534;20.382;2023-01-09T01:01:19;18.80;;;7.93;;
28519;SDS011;15732;48.534;20.382;2023-01-09T01:03:46;16.38;;;8.07;;
28519;SDS011;15732;48.534;20.382;2023-01-09T01:06:13;30.08;;;8.25;;
28519;SDS011;15732;48.534;20.382;2023-01-09T01:08:59;17.88;;;7.63;;
28519;SDS011;15732;48.534;20.382;2023-01-09T01:11:26;18.27;;;8.02;;
28519;SDS011;15732;48.534;20.382;2023-01-09T01:13:54;22.85;;;6.90;;
28519;SDS011;15732;48.534;20.382;2023-01-09T01:16:21;14.48;;;6.25;;
28519;SDS011;15732;48.534;20.382;2023-01-09T01:18:48;16.40;;;7.40;;
28519;SDS011;15732;48.534;20.382;2023-01-09T01:21:18;12.43;;;6.05;;
28519;SDS011;15732;48.534;20.382;2023-01-09T01:23:46;20.92;;;7.55;;
28519;SDS011;15732;48.534;20.382;2023-01-09T01:26:14;15.18;;;5.90;;
28519;SDS011;15732;48.534;20.382;2023-01-09T01:31:16;17.55;;;7.68;;
28519;SDS011;15732;48.534;20.382;2023-01-09T01:33:44;11.43;;;6.05;;
28519;SDS011;15732;48.534;20.382;2023-01-09T01:36:11;18.45;;;7.22;;
28519;SDS011;15732;48.534;20.382;2023-01-09T01:38:41;21.27;;;8.88;;
28519;SDS011;15732;48.534;20.382;2023-01-09T01:41:08;17.10;;;7.90;;
28519;SDS011;15732;48.534;20.382;2023-01-09T01:43:51;19.55;;;7.18;;
28519;SDS011;15732;48.534;20.382;2023-01-09T01:46:20;13.07;;;5.80;;
28519;SDS011;15732;48.534;20.382;2023-01-09T01:48:49;14.43;;;7.17;;
28519;SDS011;15732;48.534;20.382;2023-01-09T01:54:16;12.93;;;6.30;;
28519;SDS011;15732;48.534;20.382;2023-01-09T01:56:48;18.80;;;6.57;;
28519;SDS011;15732;48.534;20.382;2023-01-09T01:59:41;15.55;;;7.07;;
28519;SDS011;15732;48.534;20.382;2023-01-09T02:02:15;13.77;;;7.07;;
28519;SDS011;15732;48.534;20.382;2023-01-09T02:04:46;17.77;;;6.75;;
28519;SDS011;15732;48.534;20.382;2023-01-09T02:07:16;19.77;;;7.43;;
28519;SDS011;15732;48.534;20.382;2023-01-09T02:09:47;15.95;;;7.97;;
28519;SDS011;15732;48.534;20.382;2023-01-09T02:12:24;16.43;;;8.30;;
28519;SDS011;15732;48.534;20.382;2023-01-09T02:15:03;19.23;;;7.63;;
28519;SDS011;15732;48.534;20.382;2023-01-09T02:34:33;18.20;;;7.50;;
28519;SDS011;15732;48.534;20.382;2023-01-09T02:40:59;22.25;;;8.10;;
28519;SDS011;15732;48.534;20.382;2023-01-09T02:43:14;17.17;;;6.57;;
28519;SDS011;15732;48.534;20.382;2023-01-09T02:45:43;20.83;;;8.65;;
28519;SDS011;15732;48.534;20.382;2023-01-09T02:48:10;16.13;;;6.25;;
28519;SDS011;15732;48.534;20.382;2023-01-09T03:09:35;16.20;;;7.32;;
28519;SDS011;15732;48.534;20.382;2023-01-09T03:12:06;12.52;;;6.35;;
28519;SDS011;15732;48.534;20.382;2023-01-09T03:14:39;21.52;;;8.77;;
28519;SDS011;15732;48.534;20.382;2023-01-09T03:17:13;19.33;;;8.32;;
28519;SDS011;15732;48.534;20.382;2023-01-09T03:20:03;18.23;;;7.07;;
28519;SDS011;15732;48.534;20.382;2023-01-09T03:22:33;19.17;;;8.70;;
28519;SDS011;15732;48.534;20.382;2023-01-09T03:25:00;19.40;;;8.32;;
28519;SDS011;15732;48.534;20.382;2023-01-09T03:27:27;18.65;;;8.43;;
28519;SDS011;15732;48.534;20.382;2023-01-09T03:29:55;19.50;;;8.25;;
28519;SDS011;15732;48.534;20.382;2023-01-09T03:32:22;20.90;;;8.73;;
28519;SDS011;15732;48.534;20.382;2023-01-09T03:34:52;19.08;;;8.07;;
28519;SDS011;15732;48.534;20.382;2023-01-09T03:37:20;20.65;;;8.18;;
28519;SDS011;15732;48.534;20.382;2023-01-09T03:39:47;16.60;;;7.85;;
28519;SDS011;15732;48.534;20.382;2023-01-09T03:42:14;14.13;;;8.38;;
28519;SDS011;15732;48.534;20.382;2023-01-09T03:44:42;19.00;;;8.30;;
28519;SDS011;15732;48.534;20.382;2023-01-09T03:47:09;14.43;;;6.63;;
28519;SDS011;15732;48.534;20.382;2023-01-09T03:49:37;17.73;;;8.27;;
28519;SDS011;15732;48.534;20.382;2023-01-09T03:52:04;19.65;;;8.75;;
28519;SDS011;15732;48.534;20.382;2023-01-09T03:54:32;18.75;;;8.15;;
28519;SDS011;15732;48.534;20.382;2023-01-09T03:56:59;21.85;;;8.85;;
28519;SDS011;15732;48.534;20.382;2023-01-09T03:59:27;16.90;;;7.80;;
28519;SDS011;15732;48.534;20.382;2023-01-09T04:01:54;18.38;;;8.88;;
28519;SDS011;15732;48.534;20.382;2023-01-09T04:04:22;14.88;;;8.40;;
28519;SDS011;15732;48.534;20.382;2023-01-09T04:06:49;18.67;;;7.50;;
28519;SDS011;15732;48.534;20.382;2023-01-09T04:09:16;16.52;;;7.65;;
28519;SDS011;15732;48.534;20.382;2023-01-09T04:11:47;18.75;;;8.35;;
28519;SDS011;15732;48.534;20.382;2023-01-09T04:14:14;19.65;;;8.13;;
28519;SDS011;15732;48.534;20.382;2023-01-09T04:16:42;14.77;;;8.25;;
28519;SDS011;15732;48.534;20.382;2023-01-09T04:19:08;16.15;;;7.88;;
28519;SDS011;15732;48.534;20.382;2023-01-09T04:21:36;24.08;;;8.07;;
28519;SDS011;15732;48.534;20.382;2023-01-09T04:24:07;18.17;;;7.93;;
28519;SDS011;15732;48.534;20.382;2023-01-09T04:26:34;21.23;;;7.95;;
28519;SDS011;15732;48.534;20.382;2023-01-09T04:29:02;12.48;;;8.10;;
28519;SDS011;15732;48.534;20.382;2023-01-09T04:31:29;12.45;;;6.95;;
28519;SDS011;15732;48.534;20.382;2023-01-09T04:34:01;19.55;;;7.80;;
28519;SDS011;15732;48.534;20.382;2023-01-09T04:36:28;19.27;;;9.68;;
28519;SDS011;15732;48.534;20.382;2023-01-09T04:38:56;17.50;;;8.70;;
28519;SDS011;15732;48.534;20.382;2023-01-09T04:41:23;14.18;;;6.50;;
28519;SDS011;15732;48.534;20.382;2023-01-09T04:44:09;17.85;;;7.20;;
28519;SDS011;15732;48.534;20.382;2023-01-09T04:46:40;16.25;;;6.85;;
28519;SDS011;15732;48.534;20.382;2023-01-09T04:49:11;15.10;;;6.32;;
28519;SDS011;15732;48.534;20.382;2023-01-09T04:51:38;15.48;;;6.20;;
28519;SDS011;15732;48.534;20.382;2023-01-09T04:54:05;16.58;;;6.78;;
28519;SDS011;15732;48.534;20.382;2023-01-09T04:56:32;14.80;;;6.55;;
28519;SDS011;15732;48.534;20.382;2023-01-09T04:59:00;15.70;;;6.70;;
28519;SDS011;15732;48.534;20.382;2023-01-09T05:01:31;15.90;;;6.65;;
28519;SDS011;15732;48.534;20.382;2023-01-09T05:04:00;15.52;;;6.20;;
28519;SDS011;15732;48.534;20.382;2023-01-09T05:06:27;13.50;;;7.28;;
28519;SDS011;15732;48.534;20.382;2023-01-09T05:08:55;13.90;;;4.33;;
28519;SDS011;15732;48.534;20.382;2023-01-09T05:11:22;13.93;;;5.55;;
28519;SDS011;15732;48.534;20.382;2023-01-09T05:13:50;10.85;;;4.75;;
28519;SDS011;15732;48.534;20.382;2023-01-09T05:16:22;14.32;;;6.25;;
28519;SDS011;15732;48.534;20.382;2023-01-09T05:18:49;15.27;;;5.28;;
28519;SDS011;15732;48.534;20.382;2023-01-09T05:21:22;18.42;;;6.75;;
28519;SDS011;15732;48.534;20.382;2023-01-09T05:23:49;14.68;;;7.00;;
28519;SDS011;15732;48.534;20.382;2023-01-09T05:26:18;13.20;;;5.90;;
28519;SDS011;15732;48.534;20.382;2023-01-09T05:28:49;14.88;;;5.22;;
28519;SDS011;15732;48.534;20.382;2023-01-09T05:31:17;13.07;;;5.65;;
28519;SDS011;15732;48.534;20.382;2023-01-09T05:33:45;19.58;;;8.65;;
28519;SDS011;15732;48.534;20.382;2023-01-09T05:36:12;12.88;;;6.22;;
28519;SDS011;15732;48.534;20.382;2023-01-09T05:38:39;12.07;;;6.72;;
28519;SDS011;15732;48.534;20.382;2023-01-09T05:41:06;14.13;;;7.30;;
28519;SDS011;15732;48.534;20.382;2023-01-09T05:43:38;19.25;;;7.35;;
28519;SDS011;15732;48.534;20.382;2023-01-09T05:46:05;14.52;;;6.88;;
28519;SDS011;15732;48.534;20.382;2023-01-09T05:48:32;11.93;;;5.65;;
28519;SDS011;15732;48.534;20.382;2023-01-09T05:51:01;14.18;;;5.13;;
28519;SDS011;15732;48.534;20.382;2023-01-09T05:53:31;13.88;;;5.88;;
28519;SDS011;15732;48.534;20.382;2023-01-09T05:55:58;18.05;;;8.07;;
28519;SDS011;15732;48.534;20.382;2023-01-09T05:58:25;18.92;;;6.97;;
28519;SDS011;15732;48.534;20.382;2023-01-09T06:00:53;17.88;;;6.20;;
28519;SDS011;15732;48.534;20.382;2023-01-09T06:03:20;11.00;;;5.82;;
28519;SDS011;15732;48.534;20.382;2023-01-09T06:05:48;19.83;;;7.28;;
28519;SDS011;15732;48.534;20.382;2023-01-09T06:08:16;17.02;;;6.43;;
28519;SDS011;15732;48.534;20.382;2023-01-09T06:10:44;13.68;;;5.70;;
28519;SDS011;15732;48.534;20.382;2023-01-09T06:13:12;18.15;;;8.70;;
28519;SDS011;15732;48.534;20.382;2023-01-09T06:15:39;15.02;;;7.00;;
28519;SDS011;15732;48.534;20.382;2023-01-09T06:18:07;15.43;;;6.40;;
28519;SDS011;15732;48.534;20.382;2023-01-09T06:20:34;14.07;;;5.22;;
28519;SDS011;15732;48.534;20.382;2023-01-09T06:23:02;23.35;;;7.90;;
28519;SDS011;15732;48.534;20.382;2023-01-09T06:25:29;10.88;;;4.68;;
28519;SDS011;15732;48.534;20.382;2023-01-09T06:27:56;9.65;;;4.20;;
28519;SDS011;15732;48.534;20.382;2023-01-09T06:30:24;14.73;;;5.30;;
28519;SDS011;15732;48.534;20.382;2023-01-09T06:32:51;15.35;;;5.30;;
28519;SDS011;15732;48.534;20.382;2023-01-09T06:35:18;17.30;;;5.43;;
28519;SDS011;15732;48.534;20.382;2023-01-09T06:37:47;12.68;;;5.60;;
28519;SDS011;15732;48.534;20.382;2023-01-09T06:40:15;14.07;;;5.57;;
28519;SDS011;15732;48.534;20.382;2023-01-09T06:42:43;7.97;;;3.95;;
28519;SDS011;15732;48.534;20.382;2023-01-09T06:45:11;10.90;;;5.13;;
28519;SDS011;15732;48.534;20.382;2023-01-09T06:47:38;11.45;;;5.05;;
28519;SDS011;15732;48.534;20.382;2023-01-09T06:50:06;13.73;;;6.28;;
28519;SDS011;15732;48.534;20.382;2023-01-09T06:52:35;9.77;;;4.72;;
28519;SDS011;15732;48.534;20.382;2023-01-09T06:55:03;11.05;;;5.10;;
28519;SDS011;15732;48.534;20.382;2023-01-09T06:57:33;17.45;;;5.55;;
28519;SDS011;15732;48.534;20.382;2023-01-09T07:00:00;9.80;;;4.30;;
28519;SDS011;15732;48.534;20.382;2023-01-09T07:02:29;6.75;;;3.80;;
28519;SDS011;15732;48.534;20.382;2023-01-09T07:04:55;12.73;;;4.10;;
28519;SDS011;15732;48.534;20.382;2023-01-09T07:07:23;8.52;;;4.22;;
28519;SDS011;15732;48.534;20.382;2023-01-09T07:09:50;17.60;;;6.45;;
28519;SDS011;15732;48.534;20.382;2023-01-09T07:12:17;11.32;;;5.22;;
28519;SDS011;15732;48.534;20.382;2023-01-09T07:14:45;10.40;;;4.78;;
28519;SDS011;15732;48.534;20.382;2023-01-09T07:17:12;7.20;;;3.75;;
28519;SDS011;15732;48.534;20.382;2023-01-09T07:19:40;10.18;;;4.03;;
28519;SDS011;15732;48.534;20.382;2023-01-09T07:22:08;9.10;;;4.97;;
28519;SDS011;15732;48.534;20.382;2023-01-09T07:24:36;9.73;;;4.80;;
28519;SDS011;15732;48.534;20.382;2023-01-09T07:27:03;11.77;;;5.63;;
28519;SDS011;15732;48.534;20.382;2023-01-09T07:29:30;13.80;;;5.68;;
28519;SDS011;15732;48.534;20.382;2023-01-09T07:32:01;8.90;;;4.30;;
28519;SDS011;15732;48.534;20.382;2023-01-09T07:34:28;12.10;;;4.95;;
28519;SDS011;15732;48.534;20.382;2023-01-09T07:36:55;10.95;;;5.15;;
28519;SDS011;15732;48.534;20.382;2023-01-09T07:39:23;7.80;;;4.05;;
28519;SDS011;15732;48.534;20.382;2023-01-09T07:41:50;9.13;;;5.05;;
28519;SDS011;15732;48.534;20.382;2023-01-09T07:44:18;14.05;;;4.20;;
28519;SDS011;15732;48.534;20.382;2023-01-09T07:46:45;12.07;;;4.53;;
28519;SDS011;15732;48.534;20.382;2023-01-09T07:49:13;10.52;;;4.88;;
28519;SDS011;15732;48.534;20.382;2023-01-09T07:51:40;11.93;;;4.57;;
28519;SDS011;15732;48.534;20.382;2023-01-09T07:54:09;9.90;;;4.80;;
28519;SDS011;15732;48.534;20.382;2023-01-09T07:56:39;11.25;;;3.97;;
28519;SDS011;15732;48.534;20.382;2023-01-09T07:59:07;8.25;;;3.55;;
28519;SDS011;15732;48.534;20.382;2023-01-09T08:01:33;8.93;;;4.43;;
28519;SDS011;15732;48.534;20.382;2023-01-09T08:04:00;8.38;;;4.03;;
28519;SDS011;15732;48.534;20.382;2023-01-09T08:06:31;11.18;;;4.40;;
28519;SDS011;15732;48.534;20.382;2023-01-09T08:08:59;8.95;;;3.92;;
28519;SDS011;15732;48.534;20.382;2023-01-09T08:11:26;8.45;;;4.22;;
28519;SDS011;15732;48.534;20.382;2023-01-09T08:13:54;7.38;;;4.38;;
28519;SDS011;15732;48.534;20.382;2023-01-09T08:16:21;7.53;;;3.28;;
28519;SDS011;15732;48.534;20.382;2023-01-09T08:18:48;21.08;;;8.55;;
28519;SDS011;15732;48.534;20.382;2023-01-09T08:21:16;14.50;;;8.65;;
28519;SDS011;15732;48.534;20.382;2023-01-09T08:23:43;20.00;;;9.35;;
28519;SDS011;15732;48.534;20.382;2023-01-09T08:26:11;29.48;;;10.70;;
28519;SDS011;15732;48.534;20.382;2023-01-09T08:28:38;18.92;;;9.63;;
28519;SDS011;15732;48.534;20.382;2023-01-09T08:31:05;17.63;;;7.93;;
28519;SDS011;15732;48.534;20.382;2023-01-09T08:33:33;16.50;;;8.07;;
28519;SDS011;15732;48.534;20.382;2023-01-09T08:36:01;17.50;;;8.40;;
28519;SDS011;15732;48.534;20.382;2023-01-09T08:38:28;12.98;;;6.13;;
28519;SDS011;15732;48.534;20.382;2023-01-09T08:40:55;14.98;;;5.75;;
28519;SDS011;15732;48.534;20.382;2023-01-09T08:43:22;12.02;;;7.30;;
28519;SDS011;15732;48.534;20.382;2023-01-09T08:46:12;14.30;;;5.90;;
28519;SDS011;15732;48.534;20.382;2023-01-09T08:49:03;16.23;;;7.32;;
28519;SDS011;15732;48.534;20.382;2023-01-09T08:51:30;9.85;;;4.85;;
28519;SDS011;15732;48.534;20.382;2023-01-09T08:53:58;14.40;;;5.63;;
28519;SDS011;15732;48.534;20.382;2023-01-09T08:56:25;18.52;;;8.80;;
28519;SDS011;15732;48.534;20.382;2023-01-09T08:58:53;10.27;;;5.68;;
28519;SDS011;15732;48.534;20.382;2023-01-09T09:01:20;10.80;;;4.60;;
28519;SDS011;15732;48.534;20.382;2023-01-09T09:03:47;10.45;;;4.22;;
28519;SDS011;15732;48.534;20.382;2023-01-09T09:06:15;11.63;;;5.50;;
28519;SDS011;15732;48.534;20.382;2023-01-09T09:08:42;11.45;;;3.85;;
28519;SDS011;15732;48.534;20.382;2023-01-09T09:11:10;7.88;;;4.07;;
28519;SDS011;15732;48.534;20.382;2023-01-09T09:13:37;7.78;;;3.45;;
28519;SDS011;15732;48.534;20.382;2023-01-09T09:16:04;11.50;;;4.45;;
28519;SDS011;15732;48.534;20.382;2023-01-09T09:18:32;10.43;;;4.32;;
28519;SDS011;15732;48.534;20.382;2023-01-09T09:21:03;8.35;;;4.18;;
28519;SDS011;15732;48.534;20.382;2023-01-09T09:23:31;12.05;;;5.30;;
28519;SDS011;15732;48.534;20.382;2023-01-09T09:25:58;8.35;;;3.47;;
28519;SDS011;15732;48.534;20.382;2023-01-09T09:28:26;7.50;;;3.92;;
28519;SDS011;15732;48.534;20.382;2023-01-09T09:30:53;8.07;;;3.75;;
28519;SDS011;15732;48.534;20.382;2023-01-09T09:33:20;8.02;;;4.22;;
28519;SDS011;15732;48.534;20.382;2023-01-09T09:35:48;7.00;;;3.58;;
28519;SDS011;15732;48.534;20.382;2023-01-09T09:38:15;8.82;;;3.88;;
28519;SDS011;15732;48.534;20.382;2023-01-09T09:40:50;10.60;;;3.90;;
28519;SDS011;15732;48.534;20.382;2023-01-09T09:47:05;8.02;;;3.75;;
28519;SDS011;15732;48.534;20.382;2023-01-09T09:55:40;6.25;;;3.28;;
28519;SDS011;15732;48.534;20.382;2023-01-09T10:00:54;8.32;;;3.75;;
28519;SDS011;15732;48.534;20.382;2023-01-09T10:03:25;9.20;;;3.70;;
28519;SDS011;15732;48.534;20.382;2023-01-09T10:05:56;8.07;;;3.60;;
28519;SDS011;15732;48.534;20.382;2023-01-09T10:08:40;10.48;;;4.25;;
28519;SDS011;15732;48.534;20.382;2023-01-09T10:11:25;6.03;;;2.75;;
28519;SDS011;15732;48.534;20.382;2023-01-09T10:14:09;9.32;;;4.40;;
28519;SDS011;15732;48.534;20.382;2023-01-09T10:16:52;8.70;;;3.97;;
28519;SDS011;15732;48.534;20.382;2023-01-09T10:22:23;9.35;;;4.38;;
28519;SDS011;15732;48.534;20.382;2023-01-09T10:37:24;6.45;;;3.03;;
28519;SDS011;15732;48.534;20.382;2023-01-09T10:40:02;7.80;;;4.22;;
28519;SDS011;15732;48.534;20.382;2023-01-09T10:42:48;6.93;;;2.95;;
28519;SDS011;15732;48.534;20.382;2023-01-09T10:48:29;7.47;;;3.92;;
28519;SDS011;15732;48.534;20.382;2023-01-09T10:51:20;7.90;;;4.07;;
28519;SDS011;15732;48.534;20.382;2023-01-09T10:53:59;8.25;;;3.53;;
28519;SDS011;15732;48.534;20.382;2023-01-09T10:56:29;5.88;;;3.15;;
28519;SDS011;15732;48.534;20.382;2023-01-09T10:59:02;16.98;;;4.68;;
28519;SDS011;15732;48.534;20.382;2023-01-09T11:01:33;7.90;;;3.83;;
28519;SDS011;15732;48.534;20.382;2023-01-09T11:04:16;9.20;;;4.18;;
28519;SDS011;15732;48.534;20.382;2023-01-09T11:06:55;7.22;;;3.45;;
28519;SDS011;15732;48.534;20.382;2023-01-09T11:09:27;16.83;;;4.25;;
28519;SDS011;15732;48.534;20.382;2023-01-09T11:12:29;7.22;;;3.38;;
28519;SDS011;15732;48.534;20.382;2023-01-09T11:17:46;8.32;;;4.05;;
28519;SDS011;15732;48.534;20.382;2023-01-09T11:22:49;9.98;;;4.13;;
28519;SDS011;15732;48.534;20.382;2023-01-09T11:25:19;9.25;;;4.45;;
28519;SDS011;15732;48.534;20.382;2023-01-09T11:32:57;13.98;;;4.03;;
28519;SDS011;15732;48.534;20.382;2023-01-09T11:38:03;8.65;;;4.85;;
28519;SDS011;15732;48.534;20.382;2023-01-09T11:40:52;24.42;;;4.70;;
28519;SDS011;15732;48.534;20.382;2023-01-09T11:43:40;12.40;;;4.68;;
28519;SDS011;15732;48.534;20.382;2023-01-09T11:48:59;7.65;;;3.70;;
28519;SDS011;15732;48.534;20.382;2023-01-09T11:51:28;8.90;;;4.03;;
28519;SDS011;15732;48.534;20.382;2023-01-09T11:56:30;9.30;;;4.07;;
28519;SDS011;15732;48.534;20.382;2023-01-09T11:58:58;9.57;;;3.97;;
28519;SDS011;15732;48.534;20.382;2023-01-09T12:04:41;9.85;;;3.28;;
28519;SDS011;15732;48.534;20.382;2023-01-09T12:33:06;6.68;;;3.03;;
28519;SDS011;15732;48.534;20.382;2023-01-09T12:35:45;8.65;;;4.80;;
28519;SDS011;15732;48.534;20.382;2023-01-09T12:38:53;10.68;;;4.03;;
28519;SDS011;15732;48.534;20.382;2023-01-09T12:42:04;10.57;;;4.20;;
28519;SDS011;15732;48.534;20.382;2023-01-09T12:53:49;8.57;;;3.47;;
28519;SDS011;15732;48.534;20.382;2023-01-09T12:56:38;9.23;;;4.20;;
28519;SDS011;15732;48.534;20.382;2023-01-09T12:59:18;9.38;;;4.47;;
28519;SDS011;15732;48.534;20.382;2023-01-09T13:01:47;13.18;;;5.88;;
28519;SDS011;15732;48.534;20.382;2023-01-09T13:04:21;8.25;;;3.53;;
28519;SDS011;15732;48.534;20.382;2023-01-09T13:07:20;8.48;;;3.85;;
28519;SDS011;15732;48.534;20.382;2023-01-09T13:13:23;7.55;;;3.65;;
28519;SDS011;15732;48.534;20.382;2023-01-09T13:15:54;6.75;;;3.53;;
28519;SDS011;15732;48.534;20.382;2023-01-09T13:21:34;10.45;;;3.88;;
28519;SDS011;15732;48.534;20.382;2023-01-09T13:27:16;8.75;;;4.10;;
28519;SDS011;15732;48.534;20.382;2023-01-09T13:30:07;8.55;;;3.55;;
28519;SDS011;15732;48.534;20.382;2023-01-09T13:35:25;10.73;;;5.28;;
28519;SDS011;15732;48.534;20.382;2023-01-09T13:37:53;8.77;;;4.15;;
28519;SDS011;15732;48.534;20.382;2023-01-09T13:45:24;8.05;;;3.42;;
28519;SDS011;15732;48.534;20.382;2023-01-09T13:48:27;10.50;;;5.32;;
28519;SDS011;15732;48.534;20.382;2023-01-09T13:59:45;6.75;;;3.42;;
28519;SDS011;15732;48.534;20.382;2023-01-09T14:07:51;8.13;;;3.95;;
28519;SDS011;15732;48.534;20.382;2023-01-09T14:10:46;8.35;;;4.20;;
28519;SDS011;15732;48.534;20.382;2023-01-09T14:13:15;8.48;;;4.55;;
28519;SDS011;15732;48.534;20.382;2023-01-09T14:15:50;9.43;;;4.55;;
28519;SDS011;15732;48.534;20.382;2023-01-09T14:18:26;11.77;;;4.03;;
28519;SDS011;15732;48.534;20.382;2023-01-09T14:20:57;9.65;;;4.28;;
28519;SDS011;15732;48.534;20.382;2023-01-09T14:23:32;15.45;;;6.35;;
28519;SDS011;15732;48.534;20.382;2023-01-09T14:26:02;14.23;;;6.22;;
28519;SDS011;15732;48.534;20.382;2023-01-09T14:28:33;8.60;;;4.47;;
28519;SDS011;15732;48.534;20.382;2023-01-09T14:31:04;10.95;;;4.45;;
28519;SDS011;15732;48.534;20.382;2023-01-09T14:33:33;11.95;;;5.82;;
28519;SDS011;15732;48.534;20.382;2023-01-09T14:36:19;12.02;;;4.53;;
28519;SDS011;15732;48.534;20.382;2023-01-09T14:38:53;15.85;;;5.05;;
28519;SDS011;15732;48.534;20.382;2023-01-09T14:41:44;14.95;;;5.40;;
28519;SDS011;15732;48.534;20.382;2023-01-09T14:47:28;8.88;;;4.50;;
28519;SDS011;15732;48.534;20.382;2023-01-09T14:55:33;7.50;;;3.20;;
28519;SDS011;15732;48.534;20.382;2023-01-09T14:58:18;9.80;;;4.55;;
28519;SDS011;15732;48.534;20.382;2023-01-09T15:00:52;9.00;;;3.80;;
28519;SDS011;15732;48.534;20.382;2023-01-09T15:03:37;11.82;;;5.50;;
28519;SDS011;15732;48.534;20.382;2023-01-09T15:06:18;10.02;;;4.15;;
28519;SDS011;15732;48.534;20.382;2023-01-09T15:08:51;10.07;;;4.60;;
28519;SDS011;15732;48.534;20.382;2023-01-09T15:11:30;13.40;;;5.35;;
28519;SDS011;15732;48.534;20.382;2023-01-09T15:13:58;9.32;;;5.28;;
28519;SDS011;15732;48.534;20.382;2023-01-09T15:16:29;16.95;;;5.72;;
28519;SDS011;15732;48.534;20.382;2023-01-09T15:18:58;12.85;;;5.57;;
28519;SDS011;15732;48.534;20.382;2023-01-09T15:21:30;12.90;;;5.90;;
28519;SDS011;15732;48.534;20.382;2023-01-09T15:26:57;20.63;;;9.15;;
28519;SDS011;15732;48.534;20.382;2023-01-09T15:29:26;19.98;;;9.75;;
28519;SDS011;15732;48.534;20.382;2023-01-09T15:32:02;26.20;;;11.73;;
28519;SDS011;15732;48.534;20.382;2023-01-09T15:34:32;16.50;;;8.63;;
28519;SDS011;15732;48.534;20.382;2023-01-09T15:36:59;19.17;;;8.23;;
28519;SDS011;15732;48.534;20.382;2023-01-09T15:39:28;14.55;;;6.50;;
28519;SDS011;15732;48.534;20.382;2023-01-09T15:42:08;13.25;;;5.30;;
28519;SDS011;15732;48.534;20.382;2023-01-09T15:45:04;12.85;;;6.25;;
28519;SDS011;15732;48.534;20.382;2023-01-09T15:47:38;12.95;;;5.15;;
28519;SDS011;15732;48.534;20.382;2023-01-09T15:50:07;8.60;;;4.57;;
28519;SDS011;15732;48.534;20.382;2023-01-09T15:52:40;8.82;;;4.50;;
28519;SDS011;15732;48.534;20.382;2023-01-09T15:55:42;8.60;;;3.80;;
28519;SDS011;15732;48.534;20.382;2023-01-09T15:58:03;7.85;;;4.18;;
28519;SDS011;15732;48.534;20.382;2023-01-09T16:00:53;12.50;;;5.33;;
28519;SDS011;15732;48.534;20.382;2023-01-09T16:03:23;10.23;;;4.57;;
28519;SDS011;15732;48.534;20.382;2023-01-09T16:06:09;13.90;;;5.95;;
28519;SDS011;15732;48.534;20.382;2023-01-09T16:08:46;12.85;;;5.80;;
28519;SDS011;15732;48.534;20.382;2023-01-09T16:11:30;12.77;;;5.22;;
28519;SDS011;15732;48.534;20.382;2023-01-09T16:14:21;11.35;;;4.03;;
28519;SDS011;15732;48.534;20.382;2023-01-09T16:17:14;11.27;;;4.90;;
28519;SDS011;15732;48.534;20.382;2023-01-09T16:19:55;13.10;;;4.25;;
28519;SDS011;15732;48.534;20.382;2023-01-09T16:22:28;10.00;;;4.70;;
28519;SDS011;15732;48.534;20.382;2023-01-09T16:25:27;10.20;;;5.65;;
28519;SDS011;15732;48.534;20.382;2023-01-09T16:30:55;8.45;;;4.38;;
28519;SDS011;15732;48.534;20.382;2023-01-09T16:33:33;11.48;;;5.00;;
28519;SDS011;15732;48.534;20.382;2023-01-09T16:36:04;9.77;;;4.63;;
28519;SDS011;15732;48.534;20.382;2023-01-09T16:38:35;10.82;;;4.82;;
28519;SDS011;15732;48.534;20.382;2023-01-09T16:41:05;9.25;;;4.72;;
28519;SDS011;15732;48.534;20.382;2023-01-09T16:43:56;14.02;;;4.78;;
28519;SDS011;15732;48.534;20.382;2023-01-09T16:46:23;8.68;;;5.18;;
28519;SDS011;15732;48.534;20.382;2023-01-09T16:48:50;14.80;;;6.38;;
28519;SDS011;15732;48.534;20.382;2023-01-09T16:51:20;16.40;;;5.63;;
28519;SDS011;15732;48.534;20.382;2023-01-09T16:53:48;14.85;;;6.05;;
28519;SDS011;15732;48.534;20.382;2023-01-09T16:56:27;11.48;;;5.82;;
28519;SDS011;15732;48.534;20.382;2023-01-09T16:58:56;9.85;;;4.75;;
28519;SDS011;15732;48.534;20.382;2023-01-09T17:01:24;9.23;;;4.45;;
28519;SDS011;15732;48.534;20.382;2023-01-09T17:03:51;10.73;;;4.05;;
28519;SDS011;15732;48.534;20.382;2023-01-09T17:06:23;8.32;;;3.40;;
28519;SDS011;15732;48.534;20.382;2023-01-09T17:08:58;12.98;;;4.70;;
28519;SDS011;15732;48.534;20.382;2023-01-09T17:11:26;10.30;;;4.57;;
28519;SDS011;15732;48.534;20.382;2023-01-09T17:13:56;9.65;;;3.92;;
28519;SDS011;15732;48.534;20.382;2023-01-09T17:16:24;9.00;;;4.35;;
28519;SDS011;15732;48.534;20.382;2023-01-09T17:18:55;9.13;;;4.40;;
28519;SDS011;15732;48.534;20.382;2023-01-09T17:21:23;10.75;;;5.07;;
28519;SDS011;15732;48.534;20.382;2023-01-09T17:23:51;13.30;;;5.97;;
28519;SDS011;15732;48.534;20.382;2023-01-09T17:26:37;12.13;;;4.70;;
28519;SDS011;15732;48.534;20.382;2023-01-09T17:29:25;10.40;;;5.38;;
28519;SDS011;15732;48.534;20.382;2023-01-09T17:34:20;10.30;;;5.32;;
28519;SDS011;15732;48.534;20.382;2023-01-09T17:36:48;8.88;;;4.75;;
28519;SDS011;15732;48.534;20.382;2023-01-09T17:39:16;13.50;;;6.35;;
28519;SDS011;15732;48.534;20.382;2023-01-09T17:41:43;10.48;;;5.18;;
28519;SDS011;15732;48.534;20.382;2023-01-09T17:44:10;11.32;;;4.97;;
28519;SDS011;15732;48.534;20.382;2023-01-09T17:46:38;12.15;;;4.97;;
28519;SDS011;15732;48.534;20.382;2023-01-09T17:49:17;6.50;;;3.38;;
28519;SDS011;15732;48.534;20.382;2023-01-09T17:51:44;8.07;;;3.90;;
28519;SDS011;15732;48.534;20.382;2023-01-09T17:54:12;10.32;;;4.18;;